M I D A S
Marine Information and Data Acquisition System
Tripno 736 of the Zeeleeuw from 2004-06-14 06:28:19 to 2004-06-14 15:44:48
Back to CruiseResearch ActivitiesStationsMapUnderway DataData graphs

EquipmentUnitsComment
TimeDGPSUTC
LatitudeDGPSDM.mWGS84
LongitudeDGPSDM.mWGS84
TemperatureSBE03/SBE38deg celciusITS90
ConductivitySBE21S/mITS90
SalinitySBE21 Practical Salinity Units
ChlorophylAChelsea fluorimeterg/lCalibrated in Aceton
Missing or incorrect values are displayed as -999
Sea surface data collected by the RV Zeeleeuw from 2004-06-14 06:28:19 to 2004-06-14 15:44:48
Time Latitude Longitude Temperature Conductivity Salinity ChlorophylA
2004-06-14 06:29:23 51°13.597 2°56.091 22.443021 0.022325 0.10552 12.196871
2004-06-14 06:30:25 51°13.619 2°56.016 22.540226 0.022325 0.105561 12.129452
2004-06-14 06:31:25 51°13.647 2°55.916 22.562673 0.022325 0.105609 12.163161
2004-06-14 06:32:25 51°13.673 2°55.8 22.560565 0.022325 0.105639 12.163161
2004-06-14 06:33:24 51°13.682 2°55.79 22.531832 0.022325 0.105664 12.196871
2004-06-14 06:34:25 51°13.674 2°55.77 22.696308 0.022325 0.105681 12.163161
2004-06-14 06:35:27 51°13.745 2°55.705 19.550612 0.022325 0.105765 18.466819
2004-06-14 06:36:27 51°13.866 2°55.606 18.586277 3.246759 23.152969 11.253007
2004-06-14 06:37:27 51°14.011 2°55.516 18.320934 3.508089 25.487972 10.983332
2004-06-14 06:38:26 51°14.158 2°55.396 18.313722 3.658341 26.813365 10.275435
2004-06-14 06:39:27 51°14.302 2°55.183 18.304975 3.61967 26.521413 10.410272
2004-06-14 06:40:27 51°14.44 2°54.922 18.099537 3.638426 26.70269 10.747366
2004-06-14 06:41:27 51°14.55 2°54.609 17.807525 3.896112 29.000832 10.713657
2004-06-14 06:42:25 51°14.507 2°54.266 17.755854 4.137328 31.166547 9.702375
2004-06-14 06:43:27 51°14.386 2°53.936 17.761871 4.159261 31.35977 8.623674
2004-06-14 06:44:27 51°14.261 2°53.617 17.754516 4.172441 31.477354 8.691093
2004-06-14 06:45:27 51°14.137 2°53.293 17.755477 4.18267 31.570182 8.82593
2004-06-14 06:46:27 51°14.01 2°52.969 17.752803 4.188258 31.617252 8.960768
2004-06-14 06:47:27 51°13.883 2°52.642 17.762456 4.200174 31.722152 8.994477
2004-06-14 06:48:27 51°13.755 2°52.317 17.750463 4.204603 31.759484 9.230443
2004-06-14 06:49:27 51°13.629 2°51.989 17.751675 4.208293 31.791164 9.4327
2004-06-14 06:50:27 51°13.503 2°51.66 17.757943 4.211984 31.824545 9.567537
2004-06-14 06:51:27 51°13.376 2°51.33 17.756146 4.217889 31.873784 9.736084
2004-06-14 06:52:27 51°13.25 2°51.001 17.756522 4.222951 31.914214 9.904631
2004-06-14 06:53:26 51°13.125 2°50.678 17.752343 4.2239 31.925056 10.106888
2004-06-14 06:54:27 51°12.998 2°50.344 17.759155 4.231282 31.993029 9.97205
2004-06-14 06:55:27 51°12.866 2°50.023 17.78088 4.234445 32.007788 10.275435
2004-06-14 06:56:27 51°12.734 2°49.701 17.790153 4.238558 32.032822 10.309144
2004-06-14 06:57:27 51°12.604 2°49.38 17.7998 4.240667 32.039237 10.443982
2004-06-14 06:58:32 51°12.469 2°49.026 17.818924 4.243936 32.05714 10.612529
2004-06-14 06:59:38 51°12.346 2°48.657 17.836623 4.250579 32.097797 10.781076
2004-06-14 07:00:38 51°12.232 2°48.322 17.840046 4.255851 32.13371 10.915913
2004-06-14 07:01:38 51°12.12 2°47.987 17.845179 4.256168 32.136377 10.949623
2004-06-14 07:02:38 51°12.03 2°47.638 17.838043 4.261335 32.18109 11.11817
2004-06-14 07:03:38 51°11.94 2°47.288 17.836957 4.263128 32.19678 11.11817
2004-06-14 07:04:38 51°11.851 2°46.938 17.818673 4.27167 32.277421 11.08446
2004-06-14 07:05:38 51°11.761 2°46.588 17.795081 4.280529 32.369994 11.219298
2004-06-14 07:06:38 51°11.674 2°46.236 17.793452 4.281478 32.390662 11.08446
2004-06-14 07:07:37 51°11.604 2°45.882 17.782592 4.285275 32.428506 11.151879
2004-06-14 07:08:38 51°11.533 2°45.514 17.768222 4.293817 32.504191 11.219298
2004-06-14 07:09:38 51°11.462 2°45.152 17.767929 4.298879 32.552788 11.387845
2004-06-14 07:10:37 51°11.392 2°44.797 17.754725 4.303625 32.601632 11.623811
2004-06-14 07:11:37 51°11.321 2°44.436 17.742522 4.309953 32.663326 11.69123
2004-06-14 07:12:38 51°11.25 2°44.069 17.719698 4.314171 32.715344 11.590101
2004-06-14 07:13:37 51°11.181 2°43.716 17.719865 4.31839 32.757506 11.859777
2004-06-14 07:14:38 51°11.111 2°43.351 17.721621 4.321554 32.787245 11.893486
2004-06-14 07:15:38 51°11.042 2°42.993 17.705105 4.328726 32.852737 11.927195
2004-06-14 07:16:38 51°10.973 2°42.636 17.700045 4.333893 32.903607 11.960905
2004-06-14 07:17:38 51°10.92 2°42.284 17.693437 4.338323 32.948827 11.893486
2004-06-14 07:18:38 51°11.004 2°42.091 17.683105 4.341487 32.973338 11.69123
2004-06-14 07:19:39 51°11.087 2°42.052 17.675868 4.343596 33.005359 11.151879
2004-06-14 07:20:39 51°11.113 2°42.042 17.667458 4.343597 33.014187 11.387845
2004-06-14 07:21:47 51°11.127 2°42.032 17.675324 4.341698 32.996881 11.219298
2004-06-14 07:22:47 51°11.138 2°42.021 17.675491 4.340644 32.98851 11.320426
2004-06-14 07:23:47 51°11.15 2°42.011 17.674822 4.340116 32.982854 11.556392
2004-06-14 07:24:47 51°11.161 2°42.001 17.675784 4.3398 32.975463 11.65752
2004-06-14 07:25:45 51°11.172 2°41.991 17.680428 4.339062 32.969193 11.826067
2004-06-14 07:26:47 51°11.184 2°41.981 17.680804 4.338323 32.963511 11.859777
2004-06-14 07:27:47 51°11.196 2°41.973 17.682519 4.338534 32.964127 11.893486
2004-06-14 07:28:47 51°11.209 2°41.964 17.682979 4.338429 32.962644 11.994614
2004-06-14 07:29:47 51°11.221 2°41.957 17.683649 4.338429 32.961468 11.927195
2004-06-14 07:30:47 51°11.232 2°41.95 17.685908 4.338851 32.965051 12.028324
2004-06-14 07:31:47 51°11.245 2°41.946 17.686493 4.338745 32.962393 12.129452
2004-06-14 07:32:47 51°11.258 2°41.943 17.686702 4.339378 32.968354 12.095742
2004-06-14 07:33:47 51°11.273 2°41.942 17.686033 4.340222 32.975519 12.196871
2004-06-14 07:34:46 51°11.302 2°41.807 17.683189 4.340538 32.978794 12.365418
2004-06-14 07:35:47 51°11.2 2°41.545 17.678085 4.357096 33.121827 11.927195
2004-06-14 07:36:47 51°11.087 2°41.242 17.673106 4.369436 33.233837 12.028324
2004-06-14 07:37:45 51°10.98 2°40.944 17.661851 4.372495 33.268157 12.196871
2004-06-14 07:38:47 51°10.87 2°40.622 17.650762 4.363741 33.201392 12.23058
2004-06-14 07:39:45 51°10.79 2°40.302 17.637912 4.364163 33.210314 12.297999
2004-06-14 07:40:47 51°10.703 2°39.961 17.617314 4.365323 33.231454 12.23058
2004-06-14 07:41:47 51°10.621 2°39.63 17.606678 4.371863 33.304366 12.163161
2004-06-14 07:42:47 51°10.549 2°39.293 17.602951 4.376398 33.342408 12.23058
2004-06-14 07:43:46 51°10.48 2°38.963 17.596585 4.381882 33.394509 12.163161
2004-06-14 07:44:45 51°10.409 2°38.63 17.573294 4.389793 33.472708 12.129452
2004-06-14 07:45:47 51°10.335 2°38.28 17.533228 4.397914 33.565987 11.927195
2004-06-14 07:46:45 51°10.266 2°37.953 17.500646 4.402556 33.636913 11.724939
2004-06-14 07:47:47 51°10.192 2°37.605 17.500059 4.405509 33.67905 11.623811
2004-06-14 07:48:45 51°10.123 2°37.28 17.480259 4.409412 33.72331 11.758648
2004-06-14 07:49:47 51°10.05 2°36.933 17.45185 4.413736 33.771822 11.556392
2004-06-14 07:50:46 51°9.979 2°36.604 17.425067 4.41669 33.821987 11.65752
2004-06-14 07:51:47 51°9.917 2°36.26 17.398441 4.419116 33.865884 11.488973
2004-06-14 07:52:47 51°10.017 2°35.962 17.366511 4.419433 33.888696 11.387845
2004-06-14 07:53:47 51°10.214 2°35.819 17.232493 4.419645 33.925286 11.185589
2004-06-14 07:54:47 51°10.428 2°35.926 17.238935 4.422072 34.045466 10.781076
2004-06-14 07:55:47 51°10.64 2°36.08 17.268568 4.419119 34.003434 11.08446
2004-06-14 07:56:47 51°10.85 2°36.248 17.291079 4.418485 33.974671 10.915913
2004-06-14 07:57:47 51°11.057 2°36.421 17.320017 4.415005 33.930643 10.983332
2004-06-14 07:58:47 51°11.26 2°36.608 17.341628 4.410152 33.860836 10.983332
2004-06-14 07:59:46 51°11.459 2°36.792 17.373865 4.40625 33.815129 11.08446
2004-06-14 08:00:47 51°11.663 2°36.987 17.40554 4.398444 33.712916 11.11817
2004-06-14 08:01:47 51°11.865 2°37.178 17.370587 4.387581 33.614344 11.219298
2004-06-14 08:02:47 51°12.065 2°37.369 17.313499 4.370917 33.511955 11.185589
2004-06-14 08:03:47 51°12.266 2°37.562 17.266674 4.356258 33.42661 11.253007
2004-06-14 08:04:47 51°12.468 2°37.751 17.267726 4.349719 33.392787 11.253007
2004-06-14 08:05:46 51°12.664 2°37.939 17.258341 4.345712 33.357785 11.185589
2004-06-14 08:06:47 51°12.868 2°38.134 17.22803 4.340333 33.329066 11.185589
2004-06-14 08:07:47 51°13.069 2°38.327 17.200022 4.335377 33.31418 11.11817
2004-06-14 08:08:47 51°13.272 2°38.525 17.197031 4.328627 33.27063 11.08446
2004-06-14 08:09:47 51°13.48 2°38.71 17.193408 4.329682 33.282099 11.185589
2004-06-14 08:10:47 51°13.7 2°38.842 17.182833 4.332108 33.303548 11.017042
2004-06-14 08:11:47 51°13.924 2°38.899 16.980917 4.336539 33.422622 10.882204
2004-06-14 08:12:46 51°14.139 2°38.863 16.691379 4.300579 33.310545 9.904631
2004-06-14 08:13:46 51°14.334 2°38.703 16.621405 4.26114 33.119962 9.601247
2004-06-14 08:14:46 51°14.531 2°38.539 16.641114 4.246905 33.032134 9.567537
2004-06-14 08:15:47 51°14.73 2°38.367 16.580101 4.244584 33.002271 9.601247
2004-06-14 08:16:46 51°14.925 2°38.207 16.542217 4.230455 32.943121 9.297862
2004-06-14 08:17:47 51°15.128 2°38.052 16.520948 4.234568 33.004423 9.264153
2004-06-14 08:18:46 51°15.32 2°37.893 16.522565 4.243848 33.087674 9.4327
2004-06-14 08:19:47 51°15.518 2°37.729 16.530307 4.247539 33.114943 9.4327
2004-06-14 08:20:47 51°15.715 2°37.568 16.551998 4.250175 33.12936 9.668665
2004-06-14 08:21:47 51°15.91 2°37.405 16.562331 4.2526 33.137663 9.736084
2004-06-14 08:22:47 51°16.107 2°37.237 16.505631 4.253655 33.157225 9.668665
2004-06-14 08:23:47 51°16.305 2°37.064 16.494013 4.249015 33.144296 9.533828
2004-06-14 08:24:47 51°16.49 2°36.9 16.492608 4.24659 33.140272 9.4327
2004-06-14 08:25:47 51°16.561 2°36.781 16.497588 4.242583 33.099838 9.331571
2004-06-14 08:26:47 51°16.588 2°36.745 16.503077 4.241106 33.082698 9.196734
2004-06-14 08:27:47 51°16.603 2°36.759 16.487543 4.239208 33.069817 9.264153
2004-06-14 08:28:47 51°16.619 2°36.779 16.487799 4.237732 33.065491 9.4327
2004-06-14 08:29:47 51°16.636 2°36.8 16.495077 4.237837 33.062139 9.567537
2004-06-14 08:30:46 51°16.651 2°36.819 16.506141 4.238259 33.061546 9.567537
2004-06-14 08:31:47 51°16.667 2°36.838 16.518608 4.238575 33.057595 9.533828
2004-06-14 08:32:47 51°16.686 2°36.85 16.544556 4.240262 33.051572 9.500118
2004-06-14 08:33:47 51°16.703 2°36.863 16.537623 4.241633 33.051328 9.533828
2004-06-14 08:34:47 51°16.719 2°36.877 16.54345 4.240895 33.049773 9.4327
2004-06-14 08:35:47 51°16.734 2°36.893 16.557058 4.241106 33.046738 9.365281
2004-06-14 08:36:47 51°16.749 2°36.91 16.562246 4.241738 33.04555 9.4327
2004-06-14 08:37:47 51°16.764 2°36.93 16.56739 4.242582 33.043764 9.4327
2004-06-14 08:38:50 51°16.784 2°36.914 16.570664 4.242898 33.042867 9.4327
2004-06-14 08:39:50 51°16.759 2°36.876 16.528435 4.241422 33.048883 9.331571
2004-06-14 08:40:50 51°16.715 2°36.854 16.512439 4.239313 33.048789 9.39899
2004-06-14 08:41:50 51°16.646 2°36.803 16.504737 4.238575 33.053937 9.39899
2004-06-14 08:42:50 51°16.62 2°36.771 16.491289 4.239103 33.062799 9.39899
2004-06-14 08:43:50 51°16.615 2°36.783 16.496481 4.239525 33.073794 9.39899
2004-06-14 08:44:50 51°16.611 2°36.804 16.493076 4.24079 33.086654 9.634956
2004-06-14 08:45:50 51°16.606 2°36.828 16.494992 4.241212 33.090331 9.601247
2004-06-14 08:46:50 51°16.601 2°36.852 16.493885 4.241423 33.094001 9.601247
2004-06-14 08:47:55 51°16.555 2°36.812 16.503248 4.241845 33.094625 9.668665
2004-06-14 08:48:55 51°16.584 2°36.693 16.497375 4.244164 33.109961 9.4327
2004-06-14 08:49:54 51°16.651 2°36.558 16.494098 4.243848 33.112701 9.365281
2004-06-14 08:50:55 51°16.719 2°36.401 16.48052 4.24311 33.116653 9.297862
2004-06-14 08:51:54 51°16.82 2°36.191 16.49929 4.240896 33.103454 9.264153
2004-06-14 08:52:55 51°16.973 2°35.926 16.493289 4.240474 33.080845 9.331571
2004-06-14 08:53:55 51°17.158 2°35.724 16.496864 4.246695 33.140579 9.533828
2004-06-14 08:54:54 51°17.332 2°35.528 16.480647 4.286558 33.488412 9.567537
2004-06-14 08:55:54 51°17.506 2°35.326 16.474602 4.291199 33.540699 9.702375
2004-06-14 08:56:54 51°17.63 2°35.057 16.472772 4.293202 33.561306 9.736084
2004-06-14 08:57:54 51°17.746 2°34.777 16.505035 4.291937 33.551486 9.736084
2004-06-14 08:58:54 51°17.863 2°34.488 16.519799 4.292991 33.522325 9.702375
2004-06-14 08:59:55 51°17.994 2°34.201 16.509035 4.288456 33.48645 9.736084
2004-06-14 09:00:54 51°18.129 2°33.932 16.502056 4.288034 33.486474 9.837212
2004-06-14 09:01:55 51°18.268 2°33.655 16.502269 4.292147 33.529183 9.870922
2004-06-14 09:02:55 51°18.402 2°33.384 16.466045 4.293413 33.546424 9.870922
2004-06-14 09:03:54 51°18.532 2°33.113 16.39908 4.289617 33.560342 9.837212
2004-06-14 09:04:55 51°18.67 2°32.83 16.366127 4.28329 33.540975 9.736084
2004-06-14 09:05:55 51°18.806 2°32.549 16.342373 4.278861 33.527652 9.533828
2004-06-14 09:06:55 51°18.943 2°32.268 16.321511 4.275698 33.516089 9.533828
2004-06-14 09:07:55 51°19.08 2°31.985 16.28596 4.271375 33.505536 9.365281
2004-06-14 09:09:03 51°19.235 2°31.668 16.226253 4.265048 33.494192 9.264153
2004-06-14 09:10:03 51°19.37 2°31.387 16.149686 4.261252 33.493238 9.365281
2004-06-14 09:11:02 51°19.504 2°31.113 16.12791 4.259777 33.552686 9.129315
2004-06-14 09:12:08 51°19.651 2°30.813 16.012454 4.265894 33.658649 9.095606
2004-06-14 09:13:07 51°19.78 2°30.55 15.998223 4.271379 33.75875 9.163024
2004-06-14 09:14:14 51°19.916 2°30.257 15.999852 4.272117 33.768433 9.264153
2004-06-14 09:15:14 51°19.983 2°30.114 16.006968 4.273699 33.782411 9.331571
2004-06-14 09:16:14 51°19.989 2°30.038 16.046649 4.275175 33.780912 9.196734
2004-06-14 09:17:14 51°19.983 2°29.984 16.061555 4.278655 33.782577 9.163024
2004-06-14 09:18:14 51°19.991 2°29.996 16.046863 4.279287 33.786899 9.163024
2004-06-14 09:19:14 51°20.001 2°30.012 16.065538 4.279182 33.793549 9.196734
2004-06-14 09:20:14 51°20.014 2°30.035 16.082839 4.281396 33.796673 9.297862
2004-06-14 09:21:14 51°20.028 2°30.069 16.06147 4.283189 33.79355 9.4327
2004-06-14 09:22:14 51°20.042 2°30.106 16.037909 4.280764 33.802459 9.702375
2004-06-14 09:23:14 51°20.057 2°30.143 16.030625 4.278971 33.802432 9.837212
2004-06-14 09:24:14 51°20.073 2°30.18 16.013226 4.278233 33.804133 9.904631
2004-06-14 09:25:14 51°20.09 2°30.21 15.997708 4.276757 33.807538 9.837212
2004-06-14 09:26:14 51°20.087 2°30.202 15.996594 4.275808 33.808012 9.803503
2004-06-14 09:27:14 51°20.025 2°30.276 16.008168 4.275597 33.800451 9.736084
2004-06-14 09:28:14 51°19.869 2°30.515 16.016269 4.278128 33.803834 9.601247
2004-06-14 09:29:14 51°19.695 2°30.774 16.007011 4.277073 33.808436 9.466409
2004-06-14 09:30:14 51°19.564 2°31.097 15.996765 4.274964 33.792961 9.39899
2004-06-14 09:31:14 51°19.438 2°31.422 16.007653 4.274121 33.792465 9.4327
2004-06-14 09:32:14 51°19.314 2°31.739 16.023383 4.27275 33.774024 9.39899
2004-06-14 09:33:14 51°19.19 2°32.055 16.202792 4.255243 33.542174 13.275571
2004-06-14 09:34:14 51°19.055 2°32.358 16.286344 4.263255 33.482191 9.803503
2004-06-14 09:35:14 51°18.92 2°32.659 16.332433 4.271164 33.511148 9.668665
2004-06-14 09:36:14 51°18.787 2°32.96 16.3741 4.278967 33.539139 9.736084
2004-06-14 09:37:14 51°18.653 2°33.264 16.417489 4.286348 33.554083 9.837212
2004-06-14 09:38:14 51°18.519 2°33.569 16.411992 4.29025 33.575808 9.870922
2004-06-14 09:39:14 51°18.385 2°33.881 16.530945 4.292465 33.59332 9.904631
2004-06-14 09:40:14 51°18.25 2°34.193 16.534646 4.299213 33.563645 10.140597
2004-06-14 09:41:14 51°18.116 2°34.505 16.569133 4.302587 33.562169 10.208016
2004-06-14 09:42:14 51°17.982 2°34.816 16.506907 4.301005 33.563207 10.174306
2004-06-14 09:43:14 51°17.844 2°35.126 16.517077 4.296682 33.578079 10.208016
2004-06-14 09:44:14 51°17.705 2°35.438 16.501928 4.298264 33.581983 10.140597
2004-06-14 09:45:14 51°17.562 2°35.748 16.516183 4.305435 33.626015 10.309144
2004-06-14 09:46:14 51°17.421 2°36.057 16.498396 4.307123 33.654403 10.342853
2004-06-14 09:47:14 51°17.284 2°36.365 16.498652 4.303959 33.63235 10.275435
2004-06-14 09:48:14 51°17.154 2°36.672 16.548936 4.287929 33.468885 10.241725
2004-06-14 09:49:14 51°17.023 2°36.974 16.492097 4.258084 33.21049 10.208016
2004-06-14 09:50:14 51°16.889 2°37.286 16.546725 4.249437 33.161427 10.140597
2004-06-14 09:51:14 51°16.739 2°37.571 16.617284 4.258505 33.168316 10.208016
2004-06-14 09:52:14 51°16.587 2°37.853 16.599906 4.267258 33.224327 10.241725
2004-06-14 09:53:14 51°16.436 2°38.135 16.567135 4.268734 33.252462 10.174306
2004-06-14 09:54:14 51°16.278 2°38.419 16.528223 4.26884 33.282167 10.208016
2004-06-14 09:55:14 51°16.117 2°38.706 16.474688 4.270318 33.344174 10.275435
2004-06-14 09:56:14 51°15.96 2°38.993 16.491331 4.272321 33.375825 10.275435
2004-06-14 09:57:14 51°15.811 2°39.285 16.546725 4.27675 33.386148 10.376563
2004-06-14 09:58:14 51°15.663 2°39.574 16.638566 4.286873 33.409802 10.54511
2004-06-14 09:59:14 51°15.515 2°39.859 16.652495 4.294992 33.41906 10.713657
2004-06-14 10:00:14 51°15.371 2°40.149 16.661071 4.283076 33.326452 10.747366
2004-06-14 10:01:14 51°15.227 2°40.44 16.624124 4.282337 33.302904 10.781076
2004-06-14 10:02:14 51°15.082 2°40.737 16.574362 4.255236 33.142917 10.5114
2004-06-14 10:03:14 51°14.942 2°41.044 16.642218 4.245745 33.039057 10.342853
2004-06-14 10:04:14 51°14.805 2°41.358 16.727187 4.246377 32.992387 10.309144
2004-06-14 10:05:14 51°14.673 2°41.68 16.770862 4.254496 33.005937 10.410272
2004-06-14 10:06:14 51°14.571 2°42.028 16.810781 4.263564 33.050654 10.477691
2004-06-14 10:07:14 51°14.585 2°42.417 16.814 4.274215 33.12111 10.477691
2004-06-14 10:08:14 51°14.634 2°42.812 16.836703 4.279383 33.171926 10.578819
2004-06-14 10:09:14 51°14.684 2°43.208 17.098003 4.301106 33.260457 11.017042
2004-06-14 10:10:14 51°14.729 2°43.605 17.153374 4.332847 33.351508 11.859777
2004-06-14 10:11:14 51°14.777 2°44.003 17.141907 4.330738 33.345434 11.826067
2004-06-14 10:12:14 51°14.83 2°44.401 17.153584 4.328101 33.315497 11.758648
2004-06-14 10:13:14 51°14.894 2°44.799 17.173436 4.322195 33.246617 11.623811
2004-06-14 10:14:14 51°14.956 2°45.194 17.206214 4.324198 33.242189 11.65752
2004-06-14 10:15:14 51°15.016 2°45.588 17.170359 4.322089 33.225866 11.724939
2004-06-14 10:16:12 51°15.073 2°45.968 17.162099 4.311332 33.135243 11.522683
2004-06-14 10:17:14 51°15.133 2°46.373 17.142118 4.296884 33.044633 11.387845
2004-06-14 10:18:14 51°15.19 2°46.766 17.160708 4.289396 32.978499 11.488973
2004-06-14 10:19:14 51°15.245 2°47.158 17.186583 4.277268 32.854109 11.623811
2004-06-14 10:20:14 51°15.3 2°47.55 17.204951 4.27421 32.813619 11.623811
2004-06-14 10:21:14 51°15.357 2°47.939 17.147345 4.279588 32.85619 11.69123
2004-06-14 10:22:14 51°15.41 2°48.323 17.110785 4.282226 32.935383 11.590101
2004-06-14 10:23:14 51°15.462 2°48.706 17.152699 4.279695 32.909459 11.69123
2004-06-14 10:24:14 51°15.517 2°49.086 17.354155 4.28349 32.883124 11.927195
2004-06-14 10:25:14 51°15.572 2°49.47 17.468133 4.302892 32.882094 12.904768
2004-06-14 10:26:14 51°15.63 2°49.856 17.514737 4.312382 32.903461 12.837349
2004-06-14 10:27:14 51°15.688 2°50.246 17.546977 4.315651 32.898902 12.972187
2004-06-14 10:28:14 51°15.744 2°50.604 17.581254 4.318076 32.888356 13.073315
2004-06-14 10:29:14 51°15.756 2°50.82 17.608479 4.319025 32.872329 12.972187
2004-06-14 10:30:14 51°15.739 2°50.965 17.627447 4.320079 32.860159 12.871059
2004-06-14 10:31:14 51°15.712 2°51.078 17.663148 4.320711 32.84794 12.904768
2004-06-14 10:32:14 51°15.676 2°51.186 17.685364 4.317547 32.794141 12.837349
2004-06-14 10:33:14 51°15.636 2°51.296 17.690676 4.312379 32.735108 12.938477
2004-06-14 10:34:14 51°15.615 2°51.482 17.674362 4.304786 32.685852 13.005896
2004-06-14 10:35:14 51°15.691 2°51.83 17.665826 4.300568 32.644246 12.567674
2004-06-14 10:36:14 51°15.775 2°52.216 17.698623 4.291604 32.565333 12.533965
2004-06-14 10:37:14 51°15.858 2°52.603 17.724004 4.291287 32.546991 12.601383
2004-06-14 10:38:14 51°15.927 2°52.994 17.735834 4.287174 32.487846 12.635093
2004-06-14 10:39:14 51°15.981 2°53.389 17.698832 4.280636 32.447515 12.837349
2004-06-14 10:40:14 51°16.036 2°53.781 17.711545 4.27009 32.363427 12.80364
2004-06-14 10:41:14 51°16.092 2°54.152 17.685949 4.261548 32.311844 12.972187
2004-06-14 10:42:14 51°16.17 2°54.352 17.742606 4.25501 32.23581 12.80364
2004-06-14 10:43:14 51°16.251 2°54.363 17.794287 4.252372 32.157981 12.466546
2004-06-14 10:44:14 51°16.259 2°54.295 17.771898 4.247627 32.109925 12.702512
2004-06-14 10:45:14 51°16.27 2°54.3 17.735709 4.244147 32.103363 12.80364
2004-06-14 10:46:14 51°16.287 2°54.318 17.720492 4.241933 32.107493 12.938477
2004-06-14 10:47:14 51°16.308 2°54.339 17.726345 4.241828 32.115172 13.107024
2004-06-14 10:48:14 51°16.336 2°54.36 17.720701 4.242355 32.120773 13.208153
2004-06-14 10:49:14 51°16.362 2°54.388 17.729021 4.242777 32.120909 13.275571
2004-06-14 10:50:13 51°16.387 2°54.418 17.753388 4.242777 32.115194 13.309281
2004-06-14 10:51:14 51°16.421 2°54.433 17.762539 4.244253 32.111675 13.241862
2004-06-14 10:52:26 51°16.432 2°54.298 17.785349 4.243093 32.101305 13.34299
2004-06-14 10:53:30 51°16.302 2°54.276 17.783094 4.244885 32.086784 12.80364
2004-06-14 10:54:31 51°16.176 2°54.265 17.70293 4.251845 32.158099 12.80364
2004-06-14 10:55:30 51°16.115 2°54.396 17.696824 4.253534 32.233077 13.039606
2004-06-14 10:56:31 51°16.125 2°54.598 17.712799 4.260177 32.284704 12.601383
2004-06-14 10:57:34 51°16.201 2°54.7 17.7757 4.266504 32.299725 12.399127
2004-06-14 10:58:34 51°16.264 2°54.764 17.798756 4.267874 32.28032 12.466546
2004-06-14 10:59:34 51°16.318 2°54.825 17.787229 4.264921 32.252515 12.432836
2004-06-14 11:00:34 51°16.366 2°54.886 17.748582 4.260492 32.229996 12.500255
2004-06-14 11:01:34 51°16.411 2°54.945 17.765882 4.255853 32.202818 12.533965
2004-06-14 11:02:36 51°16.455 2°55.003 17.762915 4.252583 32.171194 12.702512
2004-06-14 11:03:36 51°16.495 2°55.061 17.765464 4.248998 32.145479 12.76993
2004-06-14 11:04:36 51°16.533 2°55.123 17.728644 4.245518 32.124079 12.871059
2004-06-14 11:05:36 51°16.571 2°55.182 17.760868 4.241828 32.105459 12.972187
2004-06-14 11:06:36 51°16.609 2°55.237 17.788816 4.243831 32.088143 13.107024
2004-06-14 11:07:36 51°16.647 2°55.292 17.805813 4.244358 32.070942 13.174443
2004-06-14 11:08:36 51°16.683 2°55.348 17.816043 4.242143 32.048846 13.174443
2004-06-14 11:09:36 51°16.721 2°55.401 17.823975 4.240666 32.030708 13.174443
2004-06-14 11:10:35 51°16.757 2°55.454 17.809196 4.239717 32.016455 13.241862
2004-06-14 11:11:36 51°16.795 2°55.511 17.814039 4.237292 32.011343 13.444118
2004-06-14 11:12:36 51°16.83 2°55.566 17.836582 4.237186 31.995686 13.410409
2004-06-14 11:13:34 51°16.867 2°55.692 17.865125 4.238346 31.982768 13.511537
2004-06-14 11:14:36 51°16.789 2°55.775 17.858366 4.236764 31.964343 13.747503
2004-06-14 11:15:36 51°16.71 2°55.602 17.875305 4.235499 31.948022 13.511537
2004-06-14 11:16:36 51°16.599 2°55.342 17.821178 4.240876 31.978581 13.612665
2004-06-14 11:17:36 51°16.491 2°55.069 17.728519 4.242671 32.081771 13.680084
2004-06-14 11:18:36 51°16.392 2°54.784 17.695235 4.251529 32.186889 13.646375
2004-06-14 11:19:36 51°16.293 2°54.504 17.681097 4.259017 32.284661 13.578956
2004-06-14 11:20:36 51°16.246 2°54.339 17.654695 4.26545 32.346616 13.545247
2004-06-14 11:21:36 51°16.246 2°54.308 17.65775 4.269036 32.392572 13.444118
2004-06-14 11:22:37 51°16.262 2°54.308 17.653691 4.270618 32.40829 13.309281
2004-06-14 11:23:38 51°16.281 2°54.316 17.655365 4.271778 32.414654 13.34299
2004-06-14 11:24:38 51°16.301 2°54.331 17.689798 4.272516 32.419755 13.410409
2004-06-14 11:25:38 51°16.32 2°54.349 17.669885 4.274519 32.42113 13.511537
2004-06-14 11:26:42 51°16.34 2°54.369 17.658587 4.272516 32.418599 13.578956
2004-06-14 11:27:41 51°16.358 2°54.39 17.645446 4.270829 32.412968 13.747503
2004-06-14 11:28:40 51°16.375 2°54.412 17.631759 4.269774 32.412121 13.713794
2004-06-14 11:29:41 51°16.393 2°54.436 17.623469 4.268298 32.408276 13.747503
2004-06-14 11:30:42 51°16.412 2°54.462 17.619701 4.266611 32.400328 14.017178
2004-06-14 11:31:40 51°16.43 2°54.487 17.638582 4.266822 32.40096 13.814922
2004-06-14 11:32:45 51°16.472 2°54.494 17.662897 4.270196 32.407604 13.882341
2004-06-14 11:33:44 51°16.57 2°54.365 17.665073 4.270934 32.40346 13.781212
2004-06-14 11:34:46 51°16.659 2°54.111 17.670931 4.270618 32.394426 13.3767
2004-06-14 11:35:44 51°16.742 2°53.87 17.665994 4.273887 32.426749 13.545247
2004-06-14 11:36:44 51°16.836 2°53.625 17.654528 4.278738 32.474232 13.511537
2004-06-14 11:37:44 51°16.936 2°53.385 17.663902 4.278211 32.469182 13.545247
2004-06-14 11:38:44 51°17.036 2°53.145 17.67591 4.283905 32.506452 13.578956
2004-06-14 11:39:44 51°17.137 2°52.903 17.699041 4.284644 32.520825 13.747503
2004-06-14 11:40:46 51°17.233 2°52.652 17.648376 4.284432 32.502232 13.612665
2004-06-14 11:41:44 51°17.338 2°52.432 17.611117 4.27684 32.484207 14.050888
2004-06-14 11:42:46 51°17.45 2°52.196 17.570193 4.270513 32.45892 13.91605
2004-06-14 11:43:44 51°17.564 2°51.985 17.513395 4.276208 32.533431 13.680084
2004-06-14 11:44:45 51°17.697 2°51.779 17.471868 4.279268 32.609003 13.545247
2004-06-14 11:45:44 51°17.824 2°51.577 17.419188 4.283486 32.667745 13.140734
2004-06-14 11:46:45 51°17.954 2°51.365 17.379915 4.282116 32.704163 13.174443
2004-06-14 11:47:44 51°18.079 2°51.16 17.377772 4.277793 32.690178 13.174443
2004-06-14 11:48:45 51°18.208 2°50.947 17.428888 4.27136 32.6124 13.241862
2004-06-14 11:49:44 51°18.314 2°50.82 17.461419 4.264399 32.529674 13.107024
2004-06-14 11:50:45 51°18.339 2°50.779 17.53721 4.262394 32.454948 12.601383
2004-06-14 11:51:46 51°18.348 2°50.781 17.538258 4.260601 32.416482 12.533965
2004-06-14 11:52:44 51°18.354 2°50.787 17.549911 4.258597 32.393661 12.871059
2004-06-14 11:53:45 51°18.359 2°50.797 17.541528 4.257016 32.380223 13.174443
2004-06-14 11:54:46 51°18.361 2°50.812 17.54421 4.25691 32.37701 13.241862
2004-06-14 11:55:43 51°18.364 2°50.828 17.527526 4.256278 32.380904 13.309281
2004-06-14 11:56:46 51°18.367 2°50.846 17.527987 4.255434 32.382428 13.3767
2004-06-14 11:57:46 51°18.372 2°50.864 17.523627 4.255329 32.379793 13.444118
2004-06-14 11:58:46 51°18.371 2°50.867 17.52522 4.255434 32.381848 13.3767
2004-06-14 11:59:42 51°18.389 2°50.815 17.539516 4.256699 32.383329 13.34299
2004-06-14 12:00:45 51°18.434 2°50.778 17.528658 4.257648 32.391972 13.107024
2004-06-14 12:01:46 51°18.471 2°50.747 17.531257 4.256278 32.382063 12.938477
2004-06-14 12:02:45 51°18.504 2°50.717 17.50807 4.253852 32.367826 12.871059
2004-06-14 12:03:43 51°18.537 2°50.693 17.48307 4.250267 32.365748 13.140734
2004-06-14 12:04:46 51°18.575 2°50.675 17.501611 4.248685 32.352876 13.275571
2004-06-14 12:05:45 51°18.612 2°50.664 17.564872 4.252165 32.351752 13.275571
2004-06-14 12:06:46 51°18.65 2°50.656 17.609526 4.258597 32.367606 13.208153
2004-06-14 12:07:43 51°18.685 2°50.649 17.629833 4.265662 32.387653 13.174443
2004-06-14 12:08:44 51°18.722 2°50.643 17.609568 4.266822 32.402695 13.174443
2004-06-14 12:09:45 51°18.759 2°50.638 17.589087 4.266189 32.410635 13.140734
2004-06-14 12:10:46 51°18.794 2°50.629 17.532263 4.26503 32.425115 12.904768
2004-06-14 12:11:45 51°18.825 2°50.618 17.434598 4.259969 32.445362 12.80364
2004-06-14 12:12:46 51°18.853 2°50.607 17.336331 4.253643 32.468346 12.601383
2004-06-14 12:13:45 51°18.873 2°50.612 17.262255 4.246473 32.47901 12.500255
2004-06-14 12:14:45 51°18.893 2°50.619 17.202255 4.240991 32.482502 12.466546
2004-06-14 12:15:45 51°18.937 2°50.583 17.13048 4.235613 32.487519 12.466546
2004-06-14 12:16:46 51°19.116 2°50.478 17.08678 4.231607 32.487856 12.399127
2004-06-14 12:17:45 51°19.331 2°50.36 17.027176 4.22275 32.46247 11.994614
2004-06-14 12:18:45 51°19.556 2°50.259 17.035073 4.217899 32.444372 11.960905
2004-06-14 12:19:45 51°19.785 2°50.168 17.06281 4.217266 32.422461 12.028324
2004-06-14 12:20:46 51°20.018 2°50.078 16.993002 4.214314 32.416522 11.792358
2004-06-14 12:21:45 51°20.243 2°49.99 17.04643 4.211046 32.416108 11.522683
2004-06-14 12:22:45 51°20.475 2°49.909 17.067621 4.210834 32.399577 11.455264
2004-06-14 12:23:46 51°20.716 2°49.83 17.212659 4.221167 32.388989 11.590101
2004-06-14 12:24:43 51°20.935 2°49.746 16.902565 4.233083 32.494632 11.859777
2004-06-14 12:25:45 51°21.175 2°49.66 16.771922 4.214212 32.586659 11.421554
2004-06-14 12:26:50 51°21.428 2°49.568 16.715055 4.216427 32.65052 11.286717
2004-06-14 12:27:50 51°21.659 2°49.484 16.537878 4.218538 32.780358 11.151879
2004-06-14 12:28:50 51°21.889 2°49.406 16.534688 4.215903 32.859536 11.08446
2004-06-14 12:29:55 51°22.137 2°49.324 16.645361 4.217695 32.813434 11.08446
2004-06-14 12:30:54 51°22.362 2°49.244 16.464853 4.220226 32.836029 11.08446
2004-06-14 12:32:03 51°22.629 2°49.157 16.494481 4.214532 32.846392 11.050751
2004-06-14 12:33:08 51°22.886 2°49.097 16.397119 4.2139 32.890016 11.017042
2004-06-14 12:34:08 51°23.125 2°49.043 16.3715 4.211898 32.916944 11.050751
2004-06-14 12:35:13 51°23.383 2°48.982 16.378023 4.212003 32.92944 10.949623
2004-06-14 12:36:12 51°23.616 2°48.926 16.417276 4.21253 32.921857 10.983332
2004-06-14 12:37:13 51°23.855 2°48.867 16.376616 4.215377 32.918697 11.017042
2004-06-14 12:38:13 51°24.092 2°48.807 16.307856 4.215061 32.967739 11.017042
2004-06-14 12:39:14 51°24.336 2°48.786 16.26649 4.21559 33.023107 10.983332
2004-06-14 12:40:13 51°24.575 2°48.797 16.257351 4.217804 33.064568 10.949623
2004-06-14 12:41:14 51°24.82 2°48.801 16.176714 4.221179 33.102108 10.882204
2004-06-14 12:42:12 51°25.052 2°48.804 16.063611 4.221181 33.224326 10.747366
2004-06-14 12:43:14 51°25.3 2°48.808 16.026982 4.218545 33.251394 10.713657
2004-06-14 12:44:13 51°25.537 2°48.797 16.021326 4.219389 33.273746 10.679947
2004-06-14 12:45:14 51°25.782 2°48.765 16.008982 4.222342 33.296025 10.679947
2004-06-14 12:46:13 51°25.985 2°48.704 16.012111 4.219601 33.30612 10.612529
2004-06-14 12:47:13 51°26.068 2°48.602 15.991063 4.220022 33.305476 10.646238
2004-06-14 12:48:14 51°26.028 2°48.525 15.974383 4.217914 33.30371 10.612529
2004-06-14 12:49:13 51°25.986 2°48.498 15.976827 4.218125 33.300582 10.646238
2004-06-14 12:50:12 51°25.977 2°48.508 15.982102 4.218757 33.308657 10.612529
2004-06-14 12:51:13 51°25.97 2°48.524 15.978886 4.218441 33.310856 10.612529
2004-06-14 12:52:14 51°25.968 2°48.537 16.002252 4.219179 33.311753 10.679947
2004-06-14 12:53:12 51°25.97 2°48.547 15.994536 4.220655 33.316043 10.713657
2004-06-14 12:54:13 51°25.973 2°48.557 15.980987 4.219917 33.313898 10.814785
2004-06-14 12:55:14 51°25.979 2°48.567 15.983431 4.219706 33.316404 10.781076
2004-06-14 12:56:18 51°25.986 2°48.578 15.991192 4.220128 33.32262 10.781076
2004-06-14 12:57:18 51°25.994 2°48.587 16.013954 4.220972 33.318209 10.814785
2004-06-14 12:58:18 51°26.005 2°48.597 16.015326 4.222448 33.319379 10.848494
2004-06-14 12:59:18 51°26.029 2°48.575 16.009325 4.22287 33.322475 10.848494
2004-06-14 13:00:19 51°26.103 2°48.602 15.976913 4.221499 33.328473 10.814785
2004-06-14 13:01:18 51°26.166 2°48.791 15.978543 4.21939 33.320476 10.747366
2004-06-14 13:02:18 51°26.253 2°49.141 15.958814 4.218019 33.316494 10.747366
2004-06-14 13:03:18 51°26.289 2°49.519 15.971123 4.21222 33.274672 11.08446
2004-06-14 13:04:18 51°26.325 2°49.901 15.993936 4.212746 33.250042 10.814785
2004-06-14 13:05:18 51°26.361 2°50.284 16.0786 4.210427 33.227101 10.781076
2004-06-14 13:06:19 51°26.4 2°50.676 16.124401 4.216857 33.18879 10.814785
2004-06-14 13:07:19 51°26.437 2°51.06 16.147462 4.217173 33.142734 10.848494
2004-06-14 13:08:19 51°26.474 2°51.442 16.229671 4.210424 33.093355 10.848494
2004-06-14 13:09:18 51°26.508 2°51.818 16.246588 4.210634 33.041665 10.949623
2004-06-14 13:10:19 51°26.546 2°52.203 16.151397 4.212426 33.005838 10.915913
2004-06-14 13:11:19 51°26.581 2°52.575 16.118496 4.19524 32.971139 10.915913
2004-06-14 13:12:18 51°26.613 2°52.941 16.147718 4.18575 32.909322 10.983332
2004-06-14 13:13:22 51°26.652 2°53.34 16.164656 4.189756 32.894825 10.949623
2004-06-14 13:14:21 51°26.7 2°53.706 16.223775 4.187541 32.852174 10.983332
2004-06-14 13:15:21 51°26.783 2°54.066 16.323431 4.184588 32.787897 11.017042
2004-06-14 13:16:23 51°26.862 2°54.445 16.378492 4.186801 32.744036 11.050751
2004-06-14 13:17:28 51°26.944 2°54.845 16.460041 4.189647 32.688356 11.08446
2004-06-14 13:18:28 51°27.018 2°55.216 16.524437 4.191123 32.666817 11.08446
2004-06-14 13:19:27 51°27.089 2°55.578 16.460169 4.189014 32.627994 11.11817
2004-06-14 13:20:28 51°27.162 2°55.953 16.47175 4.177626 32.566212 11.151879
2004-06-14 13:21:28 51°27.235 2°56.322 16.49397 4.174884 32.533945 11.11817
2004-06-14 13:22:28 51°27.307 2°56.691 16.501758 4.175833 32.517595 11.11817
2004-06-14 13:23:27 51°27.376 2°57.051 16.394818 4.174568 32.519189 11.050751
2004-06-14 13:24:28 51°27.445 2°57.423 16.34587 4.162232 32.509718 11.017042
2004-06-14 13:25:27 51°27.504 2°57.785 16.354485 4.160018 32.494625 11.017042
2004-06-14 13:26:27 51°27.561 2°58.149 16.303204 4.156539 32.486547 11.050751
2004-06-14 13:27:27 51°27.62 2°58.511 16.332177 4.153481 32.471908 11.08446
2004-06-14 13:28:27 51°27.68 2°58.877 16.369325 4.155379 32.458985 11.08446
2004-06-14 13:29:27 51°27.741 2°59.242 16.395287 4.157698 32.449166 11.11817
2004-06-14 13:30:27 51°27.802 2°59.608 16.370903 4.155905 32.436551 11.151879
2004-06-14 13:31:27 51°27.862 2°59.977 16.376019 4.154218 32.43866 11.151879
2004-06-14 13:32:28 51°27.924 3°0.354 16.367065 4.154746 32.432448 11.185589
2004-06-14 13:33:27 51°27.984 3°0.718 16.388595 4.153586 32.420543 11.185589
2004-06-14 13:34:27 51°28.047 3°1.089 16.419875 4.153902 32.399918 11.253007
2004-06-14 13:35:28 51°28.115 3°1.471 16.68323 4.154849 32.340031 11.354136
2004-06-14 13:36:28 51°28.179 3°1.848 16.777559 4.161067 32.204722 11.758648
2004-06-14 13:37:27 51°28.241 3°2.218 16.877641 4.162121 32.146727 11.859777
2004-06-14 13:38:27 51°28.3 3°2.592 16.84513 4.165283 32.128805 11.927195
2004-06-14 13:39:28 51°28.359 3°2.969 16.820863 4.161382 32.13332 11.994614
2004-06-14 13:40:27 51°28.41 3°3.322 16.782179 4.159485 32.135748 12.028324
2004-06-14 13:41:27 51°28.391 3°3.529 16.813916 4.158747 32.144072 12.163161
2004-06-14 13:42:28 51°28.313 3°3.506 16.846696 4.165494 32.149971 12.163161
2004-06-14 13:43:27 51°28.273 3°3.449 16.847035 4.166127 32.153074 12.297999
2004-06-14 13:44:27 51°28.271 3°3.435 16.852624 4.166443 32.151691 12.23058
2004-06-14 13:45:27 51°28.273 3°3.424 16.848983 4.166338 32.153717 12.331708
2004-06-14 13:46:27 51°28.277 3°3.413 16.847628 4.166233 32.152222 12.466546
2004-06-14 13:47:26 51°28.284 3°3.404 16.857916 4.165916 32.151257 12.533965
2004-06-14 13:48:31 51°28.294 3°3.397 16.869388 4.167498 32.149626 12.635093
2004-06-14 13:49:31 51°28.323 3°3.357 16.864986 4.167287 32.151329 12.76993
2004-06-14 13:50:31 51°28.394 3°3.421 16.875398 4.166971 32.152125 12.76993
2004-06-14 13:51:31 51°28.319 3°3.627 16.86016 4.167603 32.147602 12.331708
2004-06-14 13:52:31 51°28.188 3°3.908 16.863081 4.167076 32.15186 12.533965
2004-06-14 13:53:31 51°28.052 3°4.191 16.915003 4.166548 32.126807 12.904768
2004-06-14 13:54:31 51°27.917 3°4.475 16.968449 4.168024 32.102646 12.837349
2004-06-14 13:55:31 51°27.785 3°4.756 16.983622 4.170343 32.087541 12.80364
2004-06-14 13:56:31 51°27.653 3°5.037 16.944945 4.17066 32.095509 12.702512
2004-06-14 13:57:31 51°27.519 3°5.317 16.939744 4.168129 32.094204 12.635093
2004-06-14 13:58:31 51°27.351 3°5.537 16.942577 4.168867 32.091203 12.702512
2004-06-14 13:59:31 51°27.166 3°5.72 16.932132 4.16834 32.095432 12.736221
2004-06-14 14:00:31 51°26.984 3°5.908 16.921855 4.166548 32.0958 12.76993
2004-06-14 14:01:31 51°26.803 3°6.097 16.909926 4.163174 32.077308 12.904768
2004-06-14 14:02:31 51°26.622 3°6.286 16.929256 4.161803 32.064938 13.005896
2004-06-14 14:03:31 51°26.442 3°6.48 16.932217 4.162752 32.060834 13.107024
2004-06-14 14:04:31 51°26.261 3°6.675 17.199264 4.163489 31.992056 13.107024
2004-06-14 14:05:31 51°26.08 3°6.868 17.196357 4.168653 31.899158 12.972187
2004-06-14 14:06:31 51°25.9 3°7.058 17.208152 4.162853 31.82665 13.005896
2004-06-14 14:07:31 51°25.723 3°7.25 17.266001 4.146088 31.720316 13.107024
2004-06-14 14:08:31 51°25.543 3°7.438 17.410958 4.144505 31.586997 13.140734
2004-06-14 14:09:31 51°25.365 3°7.621 17.376848 4.141025 31.532462 13.140734
2004-06-14 14:10:31 51°25.186 3°7.796 17.318377 4.13628 31.509152 13.275571
2004-06-14 14:11:31 51°25.01 3°7.964 17.355416 4.132484 31.472375 13.34299
2004-06-14 14:12:31 51°24.832 3°8.143 17.40995 4.131746 31.455361 13.612665
2004-06-14 14:13:31 51°24.622 3°8.144 17.454033 4.135014 31.444694 13.3767
2004-06-14 14:14:31 51°24.47 3°7.876 17.465616 4.13786 31.427675 13.444118
2004-06-14 14:15:31 51°24.303 3°7.626 17.425781 4.137227 31.419501 13.882341
2004-06-14 14:16:31 51°24.088 3°7.588 17.562483 4.136278 31.405837 13.713794
2004-06-14 14:17:31 51°23.894 3°7.74 17.633056 4.142498 31.407901 13.781212
2004-06-14 14:18:31 51°23.733 3°7.976 17.590805 4.14798 31.37744 14.084597
2004-06-14 14:19:31 51°23.608 3°8.262 17.582678 4.140178 31.357456 14.354272
2004-06-14 14:20:31 51°23.504 3°8.57 17.535114 4.134485 31.326706 14.623947
2004-06-14 14:21:31 51°23.4 3°8.876 17.548779 4.12721 31.282564 15.095879
2004-06-14 14:22:31 51°23.294 3°9.183 17.631549 4.12763 31.232531 15.197007
2004-06-14 14:23:31 51°23.184 3°9.484 17.617775 4.116348 31.12625 15.365554
2004-06-14 14:24:31 51°23.07 3°9.784 17.673776 4.11329 31.091046 15.432973
2004-06-14 14:25:31 51°22.957 3°10.084 17.689379 4.110654 31.05278 16.039742
2004-06-14 14:26:31 51°22.844 3°10.383 17.686786 4.110443 31.018956 16.275708
2004-06-14 14:27:31 51°22.751 3°10.7 17.686535 4.103484 30.989091 16.039742
2004-06-14 14:28:31 51°22.685 3°11.035 17.783428 4.107068 30.960827 16.073452
2004-06-14 14:29:31 51°22.639 3°11.374 17.722917 4.11002 30.96088 15.938614
2004-06-14 14:30:31 51°22.614 3°11.713 17.658504 4.102641 30.970406 15.837486
2004-06-14 14:31:31 51°22.623 3°12.048 17.684904 4.102325 30.980983 15.972324
2004-06-14 14:32:31 51°22.626 3°12.379 17.685866 4.10612 31.000793 15.803777
2004-06-14 14:33:31 51°22.619 3°12.704 17.564117 4.102325 31.029078 15.500392
2004-06-14 14:34:31 51°22.595 3°12.999 17.589381 4.100006 31.022808 15.331845
2004-06-14 14:35:31 51°22.58 3°13.136 17.61028 4.100428 31.009202 15.298136
2004-06-14 14:36:31 51°22.605 3°13.177 17.694691 4.102641 30.993584 14.994751
2004-06-14 14:37:31 51°22.619 3°13.159 17.718736 4.109072 31.004115 14.590238
2004-06-14 14:38:31 51°22.633 3°13.133 17.733159 4.111181 31.013026 14.826204
2004-06-14 14:39:31 51°22.646 3°13.103 17.737715 4.112867 31.016734 15.129589
2004-06-14 14:40:31 51°22.658 3°13.071 17.749502 4.114027 31.021523 15.230717
2004-06-14 14:41:31 51°22.669 3°13.037 17.753681 4.114976 31.02564 15.399264
2004-06-14 14:42:31 51°22.694 3°12.989 17.757567 4.117823 31.037438 15.399264
2004-06-14 14:43:31 51°22.722 3°12.864 17.737883 4.117296 31.042933 15.365554
2004-06-14 14:44:31 51°22.67 3°12.624 17.739763 4.116663 31.05859 15.163298
2004-06-14 14:45:31 51°22.581 3°12.263 17.683314 4.118139 31.055543 15.163298
2004-06-14 14:46:31 51°22.499 3°11.878 17.621501 4.105699 31.019337 15.432973
2004-06-14 14:47:31 51°22.414 3°11.497 17.605003 4.104223 31.016301 15.567811
2004-06-14 14:48:31 51°22.34 3°11.113 17.701216 4.102747 31.003865 15.837486
2004-06-14 14:49:32 51°22.273 3°10.719 17.654444 4.104117 30.978416 16.107161
2004-06-14 14:50:31 51°22.206 3°10.343 17.627656 4.097897 30.960802 16.073452
2004-06-14 14:51:31 51°22.074 3°10.006 17.573336 4.091676 30.939301 15.871195
2004-06-14 14:52:32 51°21.927 3°9.666 17.699668 4.090832 30.899661 15.871195
2004-06-14 14:53:32 51°21.783 3°9.328 17.589674 4.092414 30.904164 16.343127
2004-06-14 14:54:31 51°21.645 3°8.988 17.593653 4.087037 30.900754 17.219571
2004-06-14 14:55:31 51°21.504 3°8.648 17.533311 4.087143 30.903848 18.500529
2004-06-14 14:56:31 51°21.366 3°8.313 17.484748 4.080818 30.911233 23.826614
2004-06-14 14:57:31 51°21.227 3°7.993 17.520147 4.076601 30.89774 20.489383
2004-06-14 14:58:31 51°21.098 3°7.675 17.556951 4.083137 30.892138 18.062306
2004-06-14 14:59:32 51°20.964 3°7.367 17.568601 4.081134 30.895666 19.376973
2004-06-14 15:00:32 51°20.78 3°7.15 17.606846 4.088408 30.888604 17.893759
2004-06-14 15:01:31 51°20.599 3°6.936 17.532641 4.081872 30.88809 19.174717
2004-06-14 15:02:32 51°20.4 3°6.748 17.560681 4.07776 30.872718 19.208426
2004-06-14 15:03:32 51°20.192 3°6.6 17.582678 4.080501 30.880392 18.534238
2004-06-14 15:04:32 51°20 3°6.405 17.540102 4.083558 30.895143 19.410683
2004-06-14 15:05:32 51°19.816 3°6.194 17.638205 4.088407 30.883648 19.00617
2004-06-14 15:06:32 51°19.679 3°5.895 17.579075 4.089778 30.916133 20.185999
2004-06-14 15:07:32 51°19.536 3°5.601 17.606385 4.090306 30.921127 19.174717
2004-06-14 15:08:32 51°19.393 3°5.307 17.619324 4.089252 30.937634 18.871332
2004-06-14 15:09:32 51°19.245 3°5.021 17.667918 4.099899 30.937423 18.197144
2004-06-14 15:10:32 51°19.126 3°4.693 17.613211 4.098635 30.97033 20.320836
2004-06-14 15:11:32 51°19.002 3°4.367 17.613504 4.099689 30.972586 19.57923
2004-06-14 15:12:32 51°18.847 3°4.077 17.645865 4.098002 30.980466 18.97246
2004-06-14 15:13:32 51°18.72 3°3.753 17.614342 4.104328 30.989017 18.365691
2004-06-14 15:14:32 51°18.57 3°3.454 17.812619 4.100217 31.004105 18.702785
2004-06-14 15:15:32 51°18.447 3°3.123 17.797587 4.121828 31.020423 17.657794
2004-06-14 15:16:32 51°18.307 3°2.81 17.854026 4.120353 31.035 17.489247
2004-06-14 15:17:32 51°18.201 3°2.462 17.804143 4.123094 31.055268 17.421828
2004-06-14 15:18:31 51°18.08 3°2.137 17.883731 4.134902 31.062983 16.71393
2004-06-14 15:19:31 51°17.99 3°1.778 17.79554 4.128155 31.090052 17.624084
2004-06-14 15:20:31 51°17.886 3°1.43 17.810782 4.131107 31.099949 17.725212
2004-06-14 15:21:31 51°17.793 3°1.075 17.848852 4.132057 31.133311 18.096016
2004-06-14 15:22:32 51°17.685 3°0.719 17.948602 4.145551 31.137344 16.916187
2004-06-14 15:23:32 51°17.576 3°0.373 17.942309 4.162526 31.220551 17.624084
2004-06-14 15:24:32 51°17.483 3°0.014 17.943434 4.157361 31.243467 17.792631
2004-06-14 15:25:32 51°17.379 2°59.663 18.07109 4.166428 31.285197 17.657794
2004-06-14 15:26:32 51°17.271 2°59.317 18.196727 4.190784 31.366934 17.388118
2004-06-14 15:27:32 51°17.152 2°58.978 18.166533 4.19827 31.377622 16.983606
2004-06-14 15:28:31 51°17.029 2°58.649 18.155524 4.197216 31.398577 17.354409
2004-06-14 15:29:31 51°16.919 2°58.299 18.067097 4.196584 31.435816 17.354409
2004-06-14 15:30:31 51°16.787 2°57.971 18.089973 4.196268 31.419907 16.848768
2004-06-14 15:31:31 51°16.652 2°57.643 18.0346 4.194371 31.487675 16.71393
2004-06-14 15:32:32 51°16.525 2°57.3 17.985638 4.197112 31.490644 16.74764
2004-06-14 15:33:32 51°16.39 2°56.974 17.967643 4.202596 31.543782 16.983606
2004-06-14 15:34:32 51°16.233 2°56.681 18.030063 4.202702 31.606536 18.365691
2004-06-14 15:35:32 51°16.073 2°56.394 18.005002 4.212824 31.626122 17.927469
2004-06-14 15:36:32 51°15.909 2°56.119 18.108394 4.222315 31.71907 18.466819
2004-06-14 15:37:32 51°15.753 2°55.839 18.134706 4.249096 31.744516 17.758922
2004-06-14 15:38:32 51°15.617 2°55.534 18.055947 4.237816 31.810925 19.174717
2004-06-14 15:39:32 51°15.437 2°55.3 18.057944 4.241823 31.837776 18.601657
2004-06-14 15:40:32 51°15.249 2°55.111 18.049331 4.243721 31.873891 18.43311
2004-06-14 15:41:32 51°15.033 2°55.021 18.086688 4.251208 31.902382 18.365691
2004-06-14 15:42:32 51°14.81 2°54.965 18.104402 4.256798 31.971165 18.635366
2004-06-14 15:43:32 51°14.59 2°54.978 18.498438 4.271348 31.983946 17.421828
2004-06-14 15:44:32 51°14.388 2°55.076 18.788142 4.286001 31.767418 17.388118